Flight Track Log - Related Links

Times and Time Zones

All times are in EDT time to prevent confusion due to time zone crossing. See the N717AN flight status page for this flight to view local times or setup timezone preferences in your user account.

Time Position Orientation Groundspeed Altitude Reporting Facility
EDT Latitude Longitude Course Direction KTS MPH feet Rate Location/Type
Tue 06:49:07 PM 40.6350 -73.7870 123° Southeast 171 197 100  Level FlightAware ADS-B
Tue 06:49:37 PM 40.6260 -73.7560 111° Southeast 173 199 1,400 1,855 Climbing FlightAware ADS-B
Tue 06:50:02 PM 40.6230 -73.7280 98° East 206 237 1,800 800 Climbing FlightAware ADS-B
Tue 06:50:22 PM 40.6220 -73.7030 93° East 233 268 2,000 1,333 Climbing FlightAware ADS-B
Tue 06:50:47 PM 40.6310 -73.6660 72° East 258 297 2,800 2,400 Climbing FlightAware ADS-B
Tue 06:51:12 PM 40.6460 -73.6300 61° Northeast 262 302 4,000 2,550 Climbing FlightAware ADS-B
Tue 06:51:27 PM 40.6590 -73.6140 43° Northeast 270 311 4,500 2,667 Climbing FlightAware ADS-B
Tue 06:51:57 PM 40.6920 -73.5860 33° Northeast 272 313 6,000 2,667 Climbing FlightAware ADS-B
Tue 06:52:12 PM 40.7070 -73.5730 33° Northeast 275 316 6,500 2,400 Climbing FlightAware ADS-B
Tue 06:52:37 PM 40.7350 -73.5490 33° Northeast 277 319 7,600 2,182 Climbing FlightAware ADS-B
Tue 06:53:07 PM 40.7680 -73.5200 34° Northeast 293 337 8,500 2,182 Climbing FlightAware ADS-B
Tue 06:53:32 PM 40.7980 -73.5000 27° Northeast 298 343 9,600 2,400 Climbing FlightAware ADS-B
Tue 06:53:47 PM 40.8170 -73.4960 North 304 350 10,100 2,400 Climbing FlightAware ADS-B
Tue 06:54:17 PM 40.8610 -73.5060 350° North 311 358 11,400 2,829 Climbing FlightAware ADS-B
Tue 06:54:57 PM 40.9180 -73.5270 344° North 318 366 13,400 2,889 Climbing FlightAware ADS-B
Tue 06:55:11 PM 40.9392 -73.5338 346° North 325 374 14,000 2,667 Climbing FlightAware ADS-B
Tue 06:55:42 PM 40.9820 -73.5480 346° North 330 380 15,400 2,654 Climbing FlightAware ADS-B
Tue 06:56:03 PM 41.0178 -73.5558 351° North 341 392 16,300 1,543 Climbing FlightAware ADS-B
Tue 06:56:52 PM 41.0840 -73.5240 20° North 376 433 17,200 1,629 Climbing FlightAware ADS-B
Tue 06:57:13 PM 41.1167 -73.4786 46° Northeast 350 403 18,200 2,538 Climbing FlightAware ADS-B
Tue 06:57:18 PM 41.1225 -73.4692 51° Northeast 390 449 18,300 1,174 Climbing FlightAware ADS-B
Tue 06:57:59 PM 41.1692 -73.3880 53° Northeast 390 449 19,100 1,890 Climbing FlightAware ADS-B
Tue 06:58:31 PM 41.2074 -73.3198 53° Northeast 419 482 20,600 2,545 Climbing FlightAware ADS-B
Tue 06:59:05 PM 41.2473 -73.2496 53° Northeast 427 491 21,900 2,282 Climbing FlightAware ADS-B
Tue 06:59:42 PM 41.2907 -73.1727 53° Northeast 434 499 23,300 2,174 Climbing FlightAware ADS-B
Tue 07:00:14 PM 41.3296 -73.1033 53° Northeast 439 505 24,400 2,000 Climbing FlightAware ADS-B
Tue 07:00:48 PM 41.3723 -73.0284 53° Northeast 451 519 25,500 1,705 Climbing FlightAware ADS-B
Tue 07:01:42 PM 41.4390 -72.9100 53° Northeast 467 537 26,900 1,697 Climbing FlightAware ADS-B
Tue 07:02:27 PM 41.4980 -72.8030 54° Northeast 476 548 28,300 1,765 Climbing FlightAware ADS-B
Tue 07:03:07 PM 41.5510 -72.7090 53° Northeast 482 555 29,400 1,160 Climbing FlightAware ADS-B
Tue 07:04:02 PM 41.5450 -72.7190 231° Southwest 30,500 982 Climbing FlightAware ADS-B
Tue 07:04:57 PM 41.6900 -72.4710 52° Northeast 498 573 31,200 1,642 Climbing FlightAware ADS-B
Tue 07:05:37 PM 41.7500 -72.3680 52° Northeast 498 573 33,100 2,040 Climbing FlightAware ADS-B
Tue 07:06:37 PM 41.8400 -72.2010 54° Northeast 496 571 34,600 1,200 Climbing FlightAware ADS-B
Tue 07:07:12 PM 41.8850 -72.1210 53° Northeast 490 564 35,000 324 Climbing FlightAware ADS-B
Tue 07:07:51 PM 41.9392 -72.0242 53° Northeast 491 565 35,000  Level Boston Center
Tue 07:08:51 PM 42.0175 -71.8783 54° Northeast 485 558 35,000  Level Boston Center
Tue 07:09:51 PM 42.0939 -71.7322 55° Northeast 485 558 35,000  Level Boston Center
Tue 07:10:51 PM 42.1742 -71.5856 54° Northeast 485 558 35,000 -50 Level Boston Center
Tue 07:11:51 PM 42.2503 -71.4528 52° Northeast 485 558 34,900 -50 Descending Boston Center
Tue 07:12:51 PM 42.3258 -71.3056 55° Northeast 485 558 34,900 50 Level Boston Center
Tue 07:13:51 PM 42.4036 -71.1553 55° Northeast 485 558 35,000  Climbing Boston Center
Tue 07:14:51 PM 42.4831 -71.0042 54° Northeast 485 558 34,900  Descending Boston Center
Tue 07:20:12 PM 42.9020 -70.1730 54° Northeast 489 563 35,000 14 Climbing FlightAware ADS-B
Tue 07:22:02 PM 43.0420 -69.8940 55° Northeast 486 559 35,000  Level FlightAware ADS-B
Tue 07:22:42 PM 43.0940 -69.7890 56° Northeast 487 560 35,000  Level FlightAware ADS-B
Tue 07:23:17 PM 43.1310 -69.7150 56° Northeast 486 559 35,000  Level FlightAware ADS-B
Tue 07:24:07 PM 43.1970 -69.5820 56° Northeast 486 559 35,000  Level FlightAware ADS-B
Tue 07:25:02 PM 43.2670 -69.4390 56° Northeast 484 557 35,000  Level FlightAware ADS-B
Tue 07:25:47 PM 43.3240 -69.3230 56° Northeast 482 555 35,000  Level FlightAware ADS-B
Tue 07:26:22 PM 43.3640 -69.2410 56° Northeast 481 554 35,000  Level FlightAware ADS-B
Tue 07:27:07 PM 43.4170 -69.1330 56° Northeast 480 552 35,000  Level FlightAware ADS-B
Tue 07:28:02 PM 43.4860 -68.9890 57° Northeast 476 548 35,000  Level FlightAware ADS-B
Tue 07:28:42 PM 43.5270 -68.9020 57° Northeast 476 548 35,000  Level FlightAware ADS-B
Tue 07:29:22 PM 43.5670 -68.8160 57° Northeast 476 548 35,000  Level FlightAware ADS-B
Tue 07:31:02 PM 43.7050 -68.5320 56° Northeast 477 549 35,000  Level FlightAware ADS-B
Tue 07:31:42 PM 43.7460 -68.4450 57° Northeast 477 549 35,000  Level FlightAware ADS-B
Tue 07:32:32 PM 43.8190 -68.2930 56° Northeast 477 549 35,000  Level FlightAware ADS-B
Tue 07:33:12 PM 43.8660 -68.1930 57° Northeast 478 550 35,000  Level FlightAware ADS-B
Tue 07:33:57 PM 43.9220 -68.0740 57° Northeast 478 550 35,000  Level FlightAware ADS-B
Tue 07:34:37 PM 43.9700 -67.9710 57° Northeast 479 551 35,000  Level FlightAware ADS-B
Tue 07:35:17 PM 44.0200 -67.8650 57° Northeast 484 557 35,000  Level FlightAware ADS-B
Tue 07:36:02 PM 44.0730 -67.7500 57° Northeast 480 552 35,000  Level FlightAware ADS-B
Tue 07:36:42 PM 44.1230 -67.6420 57° Northeast 483 556 35,000  Level FlightAware ADS-B
Tue 07:37:27 PM 44.1770 -67.5260 57° Northeast 483 556 35,000  Level FlightAware ADS-B
Tue 07:38:07 PM 44.2250 -67.4210 57° Northeast 481 554 35,000  Level FlightAware ADS-B
Tue 07:38:47 PM 44.2720 -67.3170 58° Northeast 481 554 35,000  Level FlightAware ADS-B
Tue 07:39:32 PM 44.3250 -67.2010 57° Northeast 481 554 35,000  Level FlightAware ADS-B
Tue 07:40:12 PM 44.3730 -67.0960 57° Northeast 481 554 35,000  Level FlightAware ADS-B
Tue 07:40:57 PM 44.4280 -66.9800 56° Northeast 480 552 35,000  Level FlightAware ADS-B
Tue 07:41:37 PM 44.4820 -66.8780 53° Northeast 479 551 35,000  Level FlightAware ADS-B
Tue 07:42:17 PM 44.5350 -66.7810 53° Northeast 480 552 35,000  Level FlightAware ADS-B
Tue 07:43:02 PM 44.5940 -66.6710 53° Northeast 480 552 35,000  Level FlightAware ADS-B
Tue 07:43:42 PM 44.6490 -66.5690 53° Northeast 482 555 35,000  Level FlightAware ADS-B
Tue 07:44:27 PM 44.7080 -66.4580 53° Northeast 482 555 35,000  Level FlightAware ADS-B
Tue 07:45:07 PM 44.7630 -66.3560 53° Northeast 483 556 35,000  Level FlightAware ADS-B
Tue 07:45:47 PM 44.8170 -66.2540 53° Northeast 483 556 35,000  Level FlightAware ADS-B
Tue 07:46:32 PM 44.8780 -66.1380 53° Northeast 486 559 35,000  Level FlightAware ADS-B
Tue 07:47:12 PM 44.9300 -66.0390 53° Northeast 486 559 35,000  Level FlightAware ADS-B
Tue 07:47:57 PM 44.9900 -65.9240 54° Northeast 487 560 35,000  Level FlightAware ADS-B
Tue 07:48:37 PM 45.0440 -65.8210 53° Northeast 488 562 35,000  Level FlightAware ADS-B
Tue 07:49:17 PM 45.0980 -65.7180 53° Northeast 490 564 35,000  Level FlightAware ADS-B
Tue 07:50:02 PM 45.1580 -65.6020 54° Northeast 490 564 35,000  Level FlightAware ADS-B
Tue 07:50:42 PM 45.2120 -65.4990 53° Northeast 490 564 35,000  Level FlightAware ADS-B
Tue 07:51:22 PM 45.2650 -65.3960 54° Northeast 490 564 35,000  Level FlightAware ADS-B
Tue 07:52:07 PM 45.3220 -65.2830 54° Northeast 491 565 35,000  Level FlightAware ADS-B
Tue 07:52:47 PM 45.3790 -65.1720 54° Northeast 493 567 35,000  Level FlightAware ADS-B
Tue 07:53:32 PM 45.4400 -65.0530 54° Northeast 493 567 35,000  Level FlightAware ADS-B
Tue 07:54:12 PM 45.4910 -64.9530 54° Northeast 493 567 35,000  Level FlightAware ADS-B
Tue 07:54:57 PM 45.5530 -64.8300 54° Northeast 495 570 35,000  Level FlightAware ADS-B
Tue 07:55:37 PM 45.6050 -64.7270 54° Northeast 496 571 35,000  Level FlightAware ADS-B
Tue 07:56:17 PM 45.6560 -64.6230 55° Northeast 498 573 35,000  Level FlightAware ADS-B
Tue 07:56:57 PM 45.7120 -64.5110 54° Northeast 499 574 35,000  Level FlightAware ADS-B
Tue 07:57:37 PM 45.7640 -64.4090 54° Northeast 500 575 35,000  Level FlightAware ADS-B
Tue 07:58:37 PM 45.8460 -64.2420 55° Northeast 500 575 35,000  Level FlightAware ADS-B
Tue 07:59:27 PM 45.9100 -64.1120 55° Northeast 502 578 35,000  Level FlightAware ADS-B
Tue 08:00:17 PM 45.9800 -63.9680 55° Northeast 502 578 35,000  Level FlightAware ADS-B
Tue 08:01:12 PM 46.0500 -63.8260 55° Northeast 503 579 35,000  Level FlightAware ADS-B
Tue 08:01:47 PM 46.0930 -63.7370 55° Northeast 503 579 35,000  Level FlightAware ADS-B
Tue 08:02:37 PM 46.1500 -63.6200 55° Northeast 503 579 35,000  Level FlightAware ADS-B
Tue 08:03:17 PM 46.1950 -63.5260 55° Northeast 503 579 35,000  Level FlightAware ADS-B
Tue 08:03:57 PM 46.2400 -63.4330 55° Northeast 503 579 35,000  Level FlightAware ADS-B
Tue 08:04:47 PM 46.2970 -63.3150 55° Northeast 503 579 35,000  Level FlightAware ADS-B
Tue 08:05:27 PM 46.3420 -63.2220 55° Northeast 503 579 35,000  Level FlightAware ADS-B
Tue 08:06:07 PM 46.3880 -63.1280 55° Northeast 503 579 35,000  Level FlightAware ADS-B
Tue 08:06:47 PM 46.4330 -63.0340 55° Northeast 503 579 35,000  Level FlightAware ADS-B
Tue 08:07:32 PM 46.5600 -62.7550 56° Northeast 514 592 35,000  Level FlightAware ADS-B
Tue 08:08:12 PM 46.6100 -62.6480 56° Northeast 516 594 35,000  Level FlightAware ADS-B
Tue 08:08:57 PM 46.6730 -62.5130 56° Northeast 518 596 35,000  Level FlightAware ADS-B
Tue 08:10:17 PM 46.7770 -62.2870 56° Northeast 518 596 35,000  Level FlightAware ADS-B
Tue 08:11:17 PM 46.8590 -62.1090 56° Northeast 522 601 35,000  Level FlightAware ADS-B
Tue 08:12:12 PM 46.9350 -61.9420 56° Northeast 523 602 35,000  Level FlightAware ADS-B
Tue 08:12:57 PM 46.9910 -61.8200 56° Northeast 523 602 35,000  Level FlightAware ADS-B
Tue 08:13:32 PM 47.0370 -61.7180 56° Northeast 523 602 35,000  Level FlightAware ADS-B
Tue 08:14:17 PM 47.1010 -61.5750 57° Northeast 525 604 35,000  Level FlightAware ADS-B
Tue 08:15:02 PM 47.1600 -61.4440 56° Northeast 528 608 35,000  Level FlightAware ADS-B
Tue 08:15:42 PM 47.2130 -61.3230 57° Northeast 528 608 35,000  Level FlightAware ADS-B
Tue 08:16:22 PM 47.2670 -61.2020 57° Northeast 527 606 35,000  Level FlightAware ADS-B
Tue 08:17:07 PM 47.3280 -61.0630 57° Northeast 528 608 35,000  Level FlightAware ADS-B
Tue 08:17:47 PM 47.3820 -60.9410 57° Northeast 528 608 35,000  Level FlightAware ADS-B
Tue 08:18:27 PM 47.4260 -60.8400 57° Northeast 528 608 35,000  Level FlightAware ADS-B
Tue 08:19:07 PM 47.4720 -60.7370 57° Northeast 528 608 35,000  Level FlightAware ADS-B
Tue 08:19:57 PM 47.5280 -60.6080 57° Northeast 528 608 35,000  Level FlightAware ADS-B
Tue 08:20:37 PM 47.5730 -60.5050 57° Northeast 528 608 35,000  Level FlightAware ADS-B
Tue 08:21:17 PM 47.6190 -60.4010 57° Northeast 528 608 35,000  Level FlightAware ADS-B
Tue 08:21:57 PM 47.6640 -60.2980 57° Northeast 528 608 35,000  Level FlightAware ADS-B
Tue 08:22:37 PM 47.7090 -60.1940 57° Northeast 528 608 35,000  Level FlightAware ADS-B
Tue 08:23:27 PM 47.7660 -60.0650 57° Northeast 528 608 35,000  Level FlightAware ADS-B
Tue 08:24:07 PM 47.8110 -59.9610 57° Northeast 528 608 35,000  Level FlightAware ADS-B
Tue 08:24:47 PM 47.8560 -59.8570 57° Northeast 528 608 35,000  Level FlightAware ADS-B
Tue 08:25:27 PM 47.9010 -59.7540 57° Northeast 528 608 35,000  Level FlightAware ADS-B
Tue 08:26:07 PM 47.9460 -59.6500 57° Northeast 528 608 35,000  Level FlightAware ADS-B
Tue 08:26:57 PM 48.0990 -59.2520 60° Northeast 532 612 35,000  Level FlightAware ADS-B
Tue 08:27:52 PM 48.1660 -59.0910 58° Northeast 533 613 35,000  Level FlightAware ADS-B
Tue 08:28:47 PM 48.2370 -58.9150 59° Northeast 534 615 35,000  Level FlightAware ADS-B
Tue 08:29:17 PM 48.2760 -58.8200 58° Northeast 534 615 35,000  Level FlightAware ADS-B
Tue 08:30:02 PM 48.3320 -58.6820 59° Northeast 536 617 35,000  Level FlightAware ADS-B
Tue 08:30:52 PM 48.4000 -58.5130 59° Northeast 537 618 35,000  Level FlightAware ADS-B
Tue 08:31:47 PM 48.4700 -58.3360 59° Northeast 535 616 35,000  Level FlightAware ADS-B
Tue 08:32:37 PM 48.5340 -58.1740 59° Northeast 535 616 35,000  Level FlightAware ADS-B
Tue 08:33:22 PM 48.5830 -58.0320 62° Northeast 537 618 35,000  Level FlightAware ADS-B
Tue 08:34:07 PM 48.6360 -57.8780 62° Northeast 536 617 35,000  Level FlightAware ADS-B
Tue 08:34:57 PM 48.6940 -57.7120 62° Northeast 536 617 35,000  Level FlightAware ADS-B
Tue 08:35:47 PM 48.7520 -57.5460 62° Northeast 536 617 35,000  Level FlightAware ADS-B
Tue 08:36:27 PM 48.7930 -57.4260 63° Northeast 535 616 35,000  Level FlightAware ADS-B
Tue 08:37:12 PM 48.8490 -57.2640 62° Northeast 537 618 35,000  Level FlightAware ADS-B
Tue 08:37:47 PM 48.8900 -57.1450 62° Northeast 537 618 35,000  Level FlightAware ADS-B
Tue 08:38:42 PM 48.9530 -56.9600 63° Northeast 540 621 35,000  Level FlightAware ADS-B
Tue 08:39:27 PM 49.0030 -56.8080 63° Northeast 540 621 35,000  Level FlightAware ADS-B
Tue 08:40:12 PM 49.0550 -56.6560 62° Northeast 537 618 35,000  Level FlightAware ADS-B
Tue 08:40:52 PM 49.0990 -56.5220 63° Northeast 538 619 35,000  Level FlightAware ADS-B
Tue 08:41:37 PM 49.1490 -56.3710 63° Northeast 539 620 35,000  Level FlightAware ADS-B
Tue 08:42:12 PM 49.1880 -56.2520 63° Northeast 540 621 35,000  Level FlightAware ADS-B
Tue 08:42:52 PM 49.2330 -56.1140 63° Northeast 540 621 35,000  Level FlightAware ADS-B
Tue 08:43:42 PM 49.2890 -55.9430 63° Northeast 541 623 35,000  Level FlightAware ADS-B
Tue 08:44:27 PM 49.3390 -55.7890 63° Northeast 542 624 35,000  Level FlightAware ADS-B
Tue 08:45:22 PM 49.3980 -55.6040 64° Northeast 542 624 35,000  Level FlightAware ADS-B
Tue 08:46:02 PM 49.4430 -55.4640 64° Northeast 542 624 35,000  Level FlightAware ADS-B
Tue 08:46:37 PM 49.4820 -55.3430 64° Northeast 543 625 35,000  Level FlightAware ADS-B
Tue 08:47:27 PM 49.5360 -55.1700 64° Northeast 544 626 35,000  Level FlightAware ADS-B
Tue 08:48:07 PM 49.5800 -55.0300 64° Northeast 543 625 35,000  Level FlightAware ADS-B
Tue 08:48:47 PM 49.6230 -54.8910 64° Northeast 543 625 35,000  Level FlightAware ADS-B
Tue 08:49:32 PM 49.6720 -54.7330 64° Northeast 541 623 35,000  Level FlightAware ADS-B
Tue 08:50:27 PM 49.7310 -54.5440 64° Northeast 540 621 35,000  Level FlightAware ADS-B
Tue 08:51:12 PM 49.7790 -54.3850 65° Northeast 542 624 35,000  Level FlightAware ADS-B
Tue 08:51:52 PM 49.8220 -54.2460 64° Northeast 542 624 35,000  Level FlightAware ADS-B
Tue 08:52:32 PM 49.8640 -54.1060 65° Northeast 544 626 35,000  Level FlightAware ADS-B
Tue 08:53:17 PM 49.9110 -53.9480 65° Northeast 545 627 35,000  Level FlightAware ADS-B
Tue 08:53:57 PM 49.9550 -53.8030 65° Northeast 545 627 35,000  Level FlightAware ADS-B
Tue 08:54:37 PM 49.9970 -53.6610 65° Northeast 545 627 35,000  Level FlightAware ADS-B
Tue 08:55:17 PM 50.0370 -53.5230 66° East 544 626 35,000  Level FlightAware ADS-B
Tue 08:56:02 PM 50.0820 -53.3730 65° Northeast 542 624 35,000  Level FlightAware ADS-B
Tue 08:56:57 PM 50.1420 -53.1660 66° East 542 624 35,000  Level FlightAware ADS-B
Tue 08:57:57 PM 50.2030 -52.9530 66° East 544 626 35,000  Level FlightAware ADS-B
Tue 08:58:37 PM 50.2440 -52.8100 66° East 543 625 35,000  Level FlightAware ADS-B
Tue 08:59:27 PM 50.2920 -52.6410 66° East 543 625 35,000  Level FlightAware ADS-B
Tue 09:00:12 PM 50.3400 -52.4720 66° East 540 621 35,000  Level FlightAware ADS-B
Tue 09:00:57 PM 50.3810 -52.3250 66° East 540 621 35,000  Level FlightAware ADS-B
Tue 09:01:37 PM 50.4160 -52.2040 66° East 540 621 35,000  Level FlightAware ADS-B
Tue 09:02:17 PM 50.4510 -52.0820 66° East 540 621 35,000  Level FlightAware ADS-B
Tue 09:02:57 PM 50.4850 -51.9600 66° East 540 621 35,000  Level FlightAware ADS-B
Tue 09:03:37 PM 50.5200 -51.8380 66° East 540 621 35,000  Level FlightAware ADS-B
Tue 09:04:27 PM 50.5630 -51.6850 66° East 540 621 35,000  Level FlightAware ADS-B
Tue 09:05:07 PM 50.5970 -51.5630 66° East 540 621 35,000  Level FlightAware ADS-B
Tue 09:05:47 PM 50.6320 -51.4410 66° East 540 621 35,000  Level FlightAware ADS-B
Tue 09:06:27 PM 50.6660 -51.3180 66° East 540 621 35,000  Level FlightAware ADS-B
Tue 09:07:17 PM 50.7100 -51.1650 66° East 540 621 35,000  Level FlightAware ADS-B
Tue 09:07:57 PM 50.7440 -51.0430 66° East 540 621 35,000  Level FlightAware ADS-B
Tue 09:08:37 PM 50.7790 -50.9200 66° East 540 621 35,000  Level FlightAware ADS-B
Tue 09:09:17 PM 50.8130 -50.7970 66° East 540 621 35,000  Level FlightAware ADS-B
Tue 09:10:07 PM 50.8560 -50.6440 66° East 540 621 35,000  Level FlightAware ADS-B
Tue 09:10:40 PM 50.9167 -50.1333 66° East 530 610 35,000  Level Gander Center
Tue 09:11:40 PM 50.9667 -49.9167 70° East 530 610 35,000  Level Gander Center
Tue 09:12:40 PM 51.0000 -49.6833 77° East 530 610 35,000  Level Gander Center
Tue 09:13:40 PM 51.0500 -49.4667 70° East 530 610 35,000  Level Gander Center
Tue 09:14:40 PM 51.0667 -49.2500 83° East 540 621 35,000  Level Gander Center
Tue 09:15:40 PM 51.0833 -49.0333 83° East 540 621 35,000  Level Gander Center
Tue 09:17:00 PM 51.1245 -48.7416 77° East  Level FlightAware Approximate
Tue 09:24:00 PM 51.3218 -47.2575 77° East  Level FlightAware Approximate
Tue 09:25:00 PM 51.3484 -47.0445 79° East  Level FlightAware Approximate
Tue 09:26:00 PM 51.3747 -46.8312 79° East  Level FlightAware Approximate
Tue 09:27:00 PM 51.4006 -46.6177 79° East  Level FlightAware Approximate
Tue 09:28:00 PM 51.4260 -46.4039 79° East  Level FlightAware Approximate
Tue 09:29:00 PM 51.4511 -46.1899 79° East  Level FlightAware Approximate
Tue 09:30:00 PM 51.4758 -45.9757 79° East  Level FlightAware Approximate
Tue 09:31:00 PM 51.5001 -45.7612 80° East  Level FlightAware Approximate
Tue 09:32:00 PM 51.5241 -45.5465 80° East  Level FlightAware Approximate
Tue 09:33:00 PM 51.5476 -45.3316 80° East  Level FlightAware Approximate
Tue 09:34:00 PM 51.5707 -45.1165 80° East  Level FlightAware Approximate
Tue 09:35:00 PM 51.5935 -44.9011 80° East  Level FlightAware Approximate
Tue 09:36:00 PM 51.6158 -44.6856 80° East  Level FlightAware Approximate
Tue 09:37:00 PM 51.6378 -44.4698 81° East  Level FlightAware Approximate
Tue 09:38:00 PM 51.6593 -44.2538 81° East  Level FlightAware Approximate
Tue 09:39:00 PM 51.6805 -44.0376 81° East  Level FlightAware Approximate
Tue 09:40:00 PM 51.7012 -43.8212 81° East  Level FlightAware Approximate
Tue 09:41:00 PM 51.7216 -43.6046 81° East  Level FlightAware Approximate
Tue 09:42:00 PM 51.7416 -43.3879 81° East  Level FlightAware Approximate
Tue 09:43:00 PM 51.7612 -43.1709 82° East  Level FlightAware Approximate
Tue 09:44:00 PM 51.7803 -42.9537 82° East  Level FlightAware Approximate
Tue 09:45:00 PM 51.7991 -42.7364 82° East  Level FlightAware Approximate
Tue 09:46:00 PM 51.8175 -42.5189 82° East  Level FlightAware Approximate
Tue 09:47:00 PM 51.8354 -42.3012 82° East  Level FlightAware Approximate
Tue 09:48:00 PM 51.8530 -42.0833 82° East  Level FlightAware Approximate
Tue 09:49:00 PM 51.8701 -41.8653 83° East  Level FlightAware Approximate
Tue 09:50:00 PM 51.8869 -41.6471 83° East  Level FlightAware Approximate
Tue 09:51:00 PM 51.9032 -41.4288 83° East  Level FlightAware Approximate
Tue 09:52:00 PM 51.9192 -41.2103 83° East  Level FlightAware Approximate
Tue 09:53:00 PM 51.9347 -40.9916 83° East  Level FlightAware Approximate
Tue 09:54:00 PM 51.9499 -40.7728 84° East  Level FlightAware Approximate
Tue 09:55:00 PM 51.9646 -40.5538 84° East  Level FlightAware Approximate
Tue 09:56:00 PM 51.9789 -40.3347 84° East  Level FlightAware Approximate
Tue 09:57:00 PM 51.9928 -40.1155 84° East  Level FlightAware Approximate
Tue 09:58:00 PM 52.0044 -39.8957 86° East  Level FlightAware Approximate
Tue 09:59:00 PM 52.0133 -39.6756 86° East  Level FlightAware Approximate
Tue 10:00:00 PM 52.0219 -39.4555 86° East  Level FlightAware Approximate
Tue 10:01:00 PM 52.0300 -39.2353 86° East  Level FlightAware Approximate
Tue 10:02:00 PM 52.0377 -39.0150 87° East  Level FlightAware Approximate
Tue 10:03:00 PM 52.0450 -38.7947 87° East  Level FlightAware Approximate
Tue 10:04:00 PM 52.0518 -38.5742 87° East  Level FlightAware Approximate
Tue 10:05:00 PM 52.0583 -38.3537 87° East  Level FlightAware Approximate
Tue 10:06:00 PM 52.0644 -38.1332 87° East  Level FlightAware Approximate
Tue 10:07:00 PM 52.0700 -37.9126 88° East  Level FlightAware Approximate
Tue 10:08:00 PM 52.0753 -37.6919 88° East  Level FlightAware Approximate
Tue 10:09:00 PM 52.0801 -37.4712 88° East  Level FlightAware Approximate
Tue 10:10:00 PM 52.0845 -37.2504 88° East  Level FlightAware Approximate
Tue 10:11:00 PM 52.0885 -37.0296 88° East  Level FlightAware Approximate
Tue 10:12:00 PM 52.0921 -36.8088 88° East  Level FlightAware Approximate
Tue 10:13:00 PM 52.0953 -36.5879 89° East  Level FlightAware Approximate
Tue 10:14:00 PM 52.0980 -36.3670 89° East  Level FlightAware Approximate
Tue 10:15:00 PM 52.1004 -36.1461 89° East  Level FlightAware Approximate
Tue 10:16:00 PM 52.1023 -35.9252 89° East  Level FlightAware Approximate
Tue 10:17:00 PM 52.1038 -35.7042 89° East  Level FlightAware Approximate
Tue 10:18:00 PM 52.1049 -35.4832 89° East  Level FlightAware Approximate
Tue 10:19:00 PM 52.1056 -35.2622 90° East  Level FlightAware Approximate
Tue 10:20:00 PM 52.1059 -35.0412 90° East  Level FlightAware Approximate
Tue 10:21:00 PM 52.1058 -34.8202 90° East  Level FlightAware Approximate
Tue 10:22:00 PM 52.1053 -34.5992 90° East  Level FlightAware Approximate
Tue 10:23:00 PM 52.1043 -34.3783 90° East  Level FlightAware Approximate
Tue 10:24:00 PM 52.1029 -34.1573 90° East  Level FlightAware Approximate
Tue 10:25:00 PM 52.1011 -33.9363 91° East  Level FlightAware Approximate
Tue 10:26:00 PM 52.0989 -33.7154 91° East  Level FlightAware Approximate
Tue 10:27:00 PM 52.0963 -33.4945 91° East  Level FlightAware Approximate
Tue 10:28:00 PM 52.0933 -33.2736 91° East  Level FlightAware Approximate
Tue 10:29:00 PM 52.0899 -33.0527 91° East  Level FlightAware Approximate
Tue 10:30:00 PM 52.0860 -32.8319 92° East  Level FlightAware Approximate
Tue 10:31:00 PM 52.0818 -32.6111 92° East  Level FlightAware Approximate
Tue 10:32:00 PM 52.0771 -32.3904 92° East  Level FlightAware Approximate
Tue 10:33:00 PM 52.0720 -32.1697 92° East  Level FlightAware Approximate
Tue 10:34:00 PM 52.0665 -31.9491 92° East  Level FlightAware Approximate
Tue 10:35:00 PM 52.0606 -31.7285 92° East  Level FlightAware Approximate
Tue 10:36:00 PM 52.0543 -31.5080 93° East  Level FlightAware Approximate
Tue 10:37:00 PM 52.0476 -31.2875 93° East  Level FlightAware Approximate
Tue 10:38:00 PM 52.0404 -31.0672 93° East  Level FlightAware Approximate
Tue 10:39:00 PM 52.0329 -30.8468 93° East  Level FlightAware Approximate
Tue 10:40:00 PM 52.0249 -30.6266 93° East  Level FlightAware Approximate
Tue 10:41:00 PM 52.0167 -30.4099 93° East  Level FlightAware Approximate
Tue 10:42:00 PM 52.0080 -30.1933 94° East  Level FlightAware Approximate
Tue 10:43:00 PM 51.9987 -29.9768 95° East  Level FlightAware Approximate
Tue 10:44:00 PM 51.9861 -29.7608 95° East  Level FlightAware Approximate
Tue 10:45:00 PM 51.9732 -29.5449 95° East  Level FlightAware Approximate
Tue 10:46:00 PM 51.9599 -29.3291 96° East  Level FlightAware Approximate
Tue 10:47:00 PM 51.9462 -29.1135 96° East  Level FlightAware Approximate
Tue 10:48:00 PM 51.9321 -28.8980 96° East  Level FlightAware Approximate
Tue 10:49:00 PM 51.9176 -28.6827 96° East  Level FlightAware Approximate
Tue 10:50:00 PM 51.9027 -28.4674 96° East  Level FlightAware Approximate
Tue 10:51:00 PM 51.8874 -28.2524 96° East  Level FlightAware Approximate
Tue 10:52:00 PM 51.8717 -28.0375 97° East  Level FlightAware Approximate
Tue 10:53:00 PM 51.8556 -27.8227 97° East  Level FlightAware Approximate
Tue 10:54:00 PM 51.8392 -27.6081 97° East  Level FlightAware Approximate
Tue 10:55:00 PM 51.8223 -27.3936 97° East  Level FlightAware Approximate
Tue 10:56:00 PM 51.8051 -27.1793 97° East  Level FlightAware Approximate
Tue 10:57:00 PM 51.7874 -26.9652 97° East  Level FlightAware Approximate
Tue 10:58:00 PM 51.7694 -26.7512 98° East  Level FlightAware Approximate
Tue 10:59:00 PM 51.7510 -26.5374 98° East  Level FlightAware Approximate
Tue 11:00:00 PM 51.7322 -26.3238 98° East  Level FlightAware Approximate
Tue 11:01:00 PM 51.7131 -26.1104 98° East  Level FlightAware Approximate
Tue 11:02:00 PM 51.6935 -25.8971 98° East  Level FlightAware Approximate
Tue 11:03:00 PM 51.6735 -25.6841 99° East  Level FlightAware Approximate
Tue 11:04:00 PM 51.6532 -25.4712 99° East  Level FlightAware Approximate
Tue 11:05:00 PM 51.6325 -25.2585 99° East  Level FlightAware Approximate
Tue 11:06:00 PM 51.6114 -25.0460 99° East  Level FlightAware Approximate
Tue 11:07:00 PM 51.5899 -24.8337 99° East  Level FlightAware Approximate
Tue 11:08:00 PM 51.5681 -24.6216 99° East  Level FlightAware Approximate
Tue 11:09:00 PM 51.5459 -24.4097 99° East  Level FlightAware Approximate
Tue 11:10:00 PM 51.5233 -24.1981 100° East  Level FlightAware Approximate
Tue 11:11:00 PM 51.5003 -23.9866 100° East  Level FlightAware Approximate
Tue 11:12:00 PM 51.4770 -23.7753 100° East  Level FlightAware Approximate
Tue 11:13:00 PM 51.4535 -23.5642 100° East  Level FlightAware Approximate
Tue 11:14:00 PM 51.4299 -23.3532 100° East  Level FlightAware Approximate
Tue 11:15:00 PM 51.4059 -23.1425 100° East  Level FlightAware Approximate
Tue 11:16:00 PM 51.3816 -22.9320 100° East  Level FlightAware Approximate
Tue 11:17:00 PM 51.3568 -22.7217 101° East  Level FlightAware Approximate
Tue 11:18:00 PM 51.3317 -22.5116 101° East  Level FlightAware Approximate
Tue 11:19:00 PM 51.3063 -22.3018 101° East  Level FlightAware Approximate
Tue 11:20:00 PM 51.2804 -22.0921 101° East  Level FlightAware Approximate
Tue 11:21:00 PM 51.2542 -21.8828 101° East  Level FlightAware Approximate
Tue 11:22:00 PM 51.2276 -21.6736 101° East  Level FlightAware Approximate
Tue 11:23:00 PM 51.2006 -21.4648 102° East  Level FlightAware Approximate
Tue 11:24:00 PM 51.1731 -21.2550 102° East  Level FlightAware Approximate
Tue 11:25:00 PM 51.1452 -21.0455 102° East  Level FlightAware Approximate
Tue 11:26:00 PM 51.1170 -20.8363 102° East  Level FlightAware Approximate
Tue 11:27:00 PM 51.0883 -20.6273 102° East  Level FlightAware Approximate
Tue 11:28:00 PM 51.0594 -20.4186 102° East  Level FlightAware Approximate
Tue 11:29:00 PM 51.0300 -20.2101 103° East  Level FlightAware Approximate
Tue 11:30:00 PM 51.0003 -20.0019 103° East  Level FlightAware Approximate
Tue 11:31:00 PM 51.0239 -19.7919 80° East  Level FlightAware Approximate
Tue 11:32:00 PM 51.0476 -19.5817 80° East  Level FlightAware Approximate
Tue 11:33:00 PM 51.0710 -19.3713 80° East  Level FlightAware Approximate
Tue 11:34:00 PM 51.0940 -19.1606 80° East  Level FlightAware Approximate
Tue 11:35:00 PM 51.1166 -18.9498 80° East  Level FlightAware Approximate
Tue 11:36:00 PM 51.1388 -18.7387 80° East  Level FlightAware Approximate
Tue 11:37:00 PM 51.1606 -18.5274 81° East  Level FlightAware Approximate
Tue 11:38:00 PM 51.1821 -18.3160 81° East  Level FlightAware Approximate
Tue 11:39:00 PM 51.2032 -18.1043 81° East  Level FlightAware Approximate
Tue 11:40:00 PM 51.2239 -17.8925 81° East  Level FlightAware Approximate
Tue 11:41:00 PM 51.2442 -17.6804 81° East  Level FlightAware Approximate
Tue 11:42:00 PM 51.2641 -17.4682 81° East  Level FlightAware Approximate
Tue 11:43:00 PM 51.2837 -17.2558 82° East  Level FlightAware Approximate
Tue 11:44:00 PM 51.3028 -17.0432 82° East  Level FlightAware Approximate
Tue 11:45:00 PM 51.3216 -16.8305 82° East  Level FlightAware Approximate
Tue 11:46:00 PM 51.3400 -16.6175 82° East  Level FlightAware Approximate
Tue 11:47:00 PM 51.3580 -16.4044 82° East  Level FlightAware Approximate
Tue 11:48:00 PM 51.3756 -16.1912 82° East  Level FlightAware Approximate
Tue 11:49:00 PM 51.3928 -15.9777 83° East  Level FlightAware Approximate
Tue 11:50:00 PM 51.4097 -15.7641 83° East  Level FlightAware Approximate
Tue 11:51:00 PM 51.4261 -15.5504 83° East  Level FlightAware Approximate
Tue 11:52:00 PM 51.4422 -15.3365 83° East  Level FlightAware Approximate
Tue 11:53:00 PM 51.4579 -15.1224 83° East  Level FlightAware Approximate
Tue 11:54:00 PM 51.4719 -14.9080 85° East  Level FlightAware Approximate
Tue 11:55:00 PM 51.4838 -14.6933 84° East  Level FlightAware Approximate
Tue 11:56:00 PM 51.4986 -14.4789 84° East  Level FlightAware Approximate
Tue 11:57:00 PM 51.5129 -14.2643 84° East  Level FlightAware Approximate
Tue 11:58:00 PM 51.5269 -14.0496 84° East  Level FlightAware Approximate
Tue 11:59:00 PM 51.5405 -13.8348 84° East  Level FlightAware Approximate
Wed 12:00:00 AM 51.5537 -13.6199 84° East  Level FlightAware Approximate
Wed 12:01:00 AM 51.5665 -13.4048 84° East  Level FlightAware Approximate
Wed 12:02:00 AM 51.5789 -13.1896 85° East  Level FlightAware Approximate
Wed 12:03:00 AM 51.5909 -12.9744 85° East  Level FlightAware Approximate
Wed 12:04:00 AM 51.6025 -12.7590 85° East  Level FlightAware Approximate
Wed 12:05:00 AM 51.6137 -12.5435 85° East  Level FlightAware Approximate
Wed 12:05:02 AM 51.4130 -10.4860 85° East 506 582 35,000  Level FlightAware ADS-B
Wed 12:05:52 AM 51.4250 -10.2920 84° East 506 582 35,000  Level FlightAware ADS-B
Wed 12:06:37 AM 51.4340 -10.1240 85° East 507 583 35,000  Level FlightAware ADS-B
Wed 12:07:17 AM 51.4420 -9.9760 85° East 505 581 35,000  Level FlightAware ADS-B
Wed 12:07:57 AM 51.4490 -9.8360 85° East 503 579 35,000  Level FlightAware ADS-B
Wed 12:08:42 AM 51.4580 -9.6660 85° East 500 575 35,000  Level FlightAware ADS-B
Wed 12:09:22 AM 51.4660 -9.5150 85° East 498 573 35,000  Level FlightAware ADS-B
Wed 12:10:07 AM 51.4740 -9.3470 86° East 505 581 35,000  Level FlightAware ADS-B
Wed 12:10:47 AM 51.4810 -9.2000 86° East 507 583 35,000  Level FlightAware ADS-B
Wed 12:11:32 AM 51.4890 -9.0330 86° East 511 588 35,000 -1,574 Level FlightAware ADS-B
Wed 12:11:48 AM 51.4925 -8.9529 86° East 486 559 33,400 -2,824 Descending FlightAware UK
Wed 12:12:06 AM 51.4954 -8.8852 86° East 482 555 33,400 4,000 Level FlightAware UK
Wed 12:12:12 AM 51.4960 -8.8800 86° East 512 589 35,000 250 Climbing FlightAware ADS-B
Wed 12:12:30 AM 51.4993 -8.7946 86° East 486 559 33,500 -2,500 Descending FlightAware UK
Wed 12:12:48 AM 51.5021 -8.7267 86° East 482 555 33,500 4,091 Level FlightAware UK
Wed 12:12:52 AM 51.5020 -8.7290 86° East 509 586 35,000  Climbing FlightAware ADS-B
Wed 12:13:12 AM 51.5062 -8.6365 86° East 482 555 33,500 -2,368 Descending FlightAware UK
Wed 12:13:30 AM 51.5090 -8.5682 86° East 480 552 33,500 4,500 Level FlightAware UK
Wed 12:13:32 AM 51.5090 -8.5790 86° East 511 588 35,000 -333 Climbing FlightAware ADS-B
Wed 12:13:48 AM 51.5119 -8.5002 86° East 488 562 33,400 -2,647 Descending FlightAware UK
Wed 12:14:06 AM 51.5148 -8.4324 86° East 484 557 33,500 3,310 Climbing FlightAware UK
Wed 12:14:17 AM 51.5160 -8.4120 86° East 508 585 35,000  Climbing FlightAware ADS-B
Wed 12:14:36 AM 51.5195 -8.3198 86° East 486 559 33,500 -2,432 Descending FlightAware UK
Wed 12:14:54 AM 51.5223 -8.2518 86° East 484 557 33,500 4,286 Level FlightAware UK
Wed 12:14:57 AM 51.5220 -8.2600 86° East 506 582 35,000  Climbing FlightAware ADS-B
Wed 12:15:12 AM 51.5249 -8.1855 86° East 482 555 33,500 -2,727 Descending FlightAware UK
Wed 12:15:30 AM 51.5277 -8.1178 86° East 482 555 33,500 3,000 Level FlightAware UK
Wed 12:15:42 AM 51.5280 -8.0960 86° East 508 585 35,000  Climbing FlightAware ADS-B
Wed 12:16:00 AM 51.5316 -8.0059 86° East 478 550 33,500 -2,500 Descending FlightAware UK
Wed 12:16:18 AM 51.5338 -7.9384 87° East 480 552 33,500 4,091 Level FlightAware UK
Wed 12:16:22 AM 51.5340 -7.9410 87° East 511 588 35,000  Climbing FlightAware ADS-B
Wed 12:16:42 AM 51.5368 -7.8480 87° East 482 555 33,500 -2,368 Descending FlightAware UK
Wed 12:17:00 AM 51.5390 -7.7799 87° East 484 557 33,500 3,600 Level FlightAware UK
Wed 12:17:07 AM 51.5400 -7.7740 87° East 513 590 35,000  Climbing FlightAware ADS-B
Wed 12:17:24 AM 51.5420 -7.6887 87° East 484 557 33,500 -2,571 Descending FlightAware UK
Wed 12:17:42 AM 51.5444 -7.6204 87° East 486 559 33,500 3,913 Level FlightAware UK
Wed 12:17:47 AM 51.5450 -7.6230 87° East 512 589 35,000  Climbing FlightAware ADS-B
Wed 12:18:06 AM 51.5478 -7.5295 87° East 484 557 33,500 -2,432 Descending FlightAware UK
Wed 12:18:24 AM 51.5502 -7.4613 87° East 482 555 33,500 4,286 Level FlightAware UK
Wed 12:18:27 AM 51.5500 -7.4700 87° East 511 588 35,000  Climbing FlightAware ADS-B
Wed 12:18:42 AM 51.5524 -7.3925 87° East 482 555 33,500 -2,727 Descending FlightAware UK
Wed 12:19:00 AM 51.5545 -7.3245 87° East 482 555 33,500 3,000 Level FlightAware UK
Wed 12:19:12 AM 51.5550 -7.2990 87° East 513 590 35,000  Climbing FlightAware ADS-B
Wed 12:19:30 AM 51.5578 -7.2110 87° East 484 557 33,500 -2,500 Descending FlightAware UK
Wed 12:19:48 AM 51.5596 -7.1427 88° East 484 557 33,500 4,091 Level FlightAware UK
Wed 12:19:52 AM 51.5590 -7.1620 88° East 513 590 35,000  Climbing FlightAware ADS-B
Wed 12:20:12 AM 51.5624 -7.0516 88° East 486 559 33,500 -2,526 Descending FlightAware UK
Wed 12:20:30 AM 51.5646 -6.9832 87° East 486 559 33,400 3,600 Descending FlightAware UK
Wed 12:20:37 AM 51.5650 -6.9780 87° East 513 590 35,000 250 Climbing FlightAware ADS-B
Wed 12:20:54 AM 51.5680 -6.8923 87° East 484 557 33,500 -2,571 Descending FlightAware UK
Wed 12:21:12 AM 51.5715 -6.8242 85° East 484 557 33,500 3,913 Level FlightAware UK
Wed 12:21:17 AM 51.5720 -6.8300 85° East 513 590 35,000  Climbing FlightAware ADS-B
Wed 12:21:36 AM 51.5770 -6.7336 85° East 484 557 33,500 -2,432 Descending FlightAware UK
Wed 12:21:54 AM 51.5811 -6.6656 84° East 484 557 33,500 4,286 Level FlightAware UK
Wed 12:21:57 AM 51.5810 -6.6660 84° East 512 589 35,000  Climbing FlightAware ADS-B
Wed 12:22:12 AM 51.5849 -6.5975 84° East 486 559 33,500 -2,727 Descending FlightAware UK
Wed 12:22:30 AM 51.5886 -6.5293 85° East 484 557 33,500 3,000 Level FlightAware UK
Wed 12:22:42 AM 51.5900 -6.4960 85° East 512 589 35,000  Climbing FlightAware ADS-B
Wed 12:23:00 AM 51.5944 -6.4150 85° East 488 562 33,500 -2,500 Descending FlightAware UK
Wed 12:23:18 AM 51.5974 -6.3469 86° East 486 559 33,500 4,091 Level FlightAware UK
Wed 12:23:22 AM 51.5970 -6.3450 86° East 511 588 35,000  Climbing FlightAware ADS-B
Wed 12:23:42 AM 51.6014 -6.2562 86° East 486 559 33,500 -2,368 Descending FlightAware UK
Wed 12:24:00 AM 51.6044 -6.1883 86° East 486 559 33,500 3,600 Level FlightAware UK
Wed 12:24:07 AM 51.6050 -6.1740 86° East 509 586 35,000  Climbing FlightAware ADS-B
Wed 12:24:24 AM 51.6084 -6.0979 86° East 484 557 33,500  Descending FlightAware UK
Wed 12:24:42 AM 51.6110 -6.0420 86° East 510 587 35,000  Climbing FlightAware ADS-B
Wed 12:24:43 AM 51.6113 -6.0294 86° East 484 557 33,500 -4,737 Descending FlightAware UK
Wed 12:25:01 AM 51.6145 -5.9616 86° East 484 557 33,500  Level FlightAware UK
Wed 12:25:19 AM 51.6175 -5.8937 86° East 484 557 33,500  Level FlightAware UK
Wed 12:25:37 AM 51.6203 -5.8257 86° East 486 559 33,500  Level FlightAware UK
Wed 12:25:55 AM 51.6231 -5.7576 86° East 488 562 33,500  Level FlightAware UK
Wed 12:26:13 AM 51.6259 -5.6896 86° East 488 562 33,500  Level FlightAware UK
Wed 12:26:31 AM 51.6287 -5.6217 86° East 486 559 33,500  Level FlightAware UK
Wed 12:26:49 AM 51.6314 -5.5538 86° East 486 559 33,500  Level FlightAware UK
Wed 12:27:07 AM 51.6340 -5.4862 86° East 484 557 33,500  Level FlightAware UK
Wed 12:27:25 AM 51.6369 -5.4185 86° East 486 559 33,500  Level FlightAware UK
Wed 12:27:43 AM 51.6396 -5.3501 86° East 486 559 33,500  Level FlightAware UK
Wed 12:28:01 AM 51.6422 -5.2824 86° East 488 562 33,500  Level FlightAware UK
Wed 12:28:19 AM 51.6446 -5.2155 87° East 484 557 33,500  Level FlightAware UK
Wed 12:28:37 AM 51.6471 -5.1470 87° East 486 559 33,500  Level FlightAware UK
Wed 12:28:55 AM 51.6497 -5.0794 86° East 486 559 33,500  Level FlightAware UK
Wed 12:29:13 AM 51.6521 -5.0117 87° East 490 564 33,500  Level FlightAware UK
Wed 12:29:31 AM 51.6545 -4.9447 87° East 486 559 33,500  Level FlightAware UK
Wed 12:29:49 AM 51.6569 -4.8763 87° East 486 559 33,500  Level FlightAware UK
Wed 12:30:07 AM 51.6591 -4.8087 87° East 488 562 33,500  Level FlightAware UK
Wed 12:30:25 AM 51.6614 -4.7412 87° East 486 559 33,500  Level FlightAware UK
Wed 12:30:43 AM 51.6636 -4.6738 87° East 486 559 33,500 3,333 Level FlightAware UK
Wed 12:30:52 AM 51.6640 -4.6560 87° East 504 580 35,000  Climbing FlightAware ADS-B
Wed 12:31:07 AM 51.6665 -4.5833 87° East 486 559 33,500  Descending FlightAware UK
Wed 12:31:08 AM 51.6665 -4.5801 87° East 505 581 35,000  Climbing FlightAware ADS-B
Wed 12:31:25 AM 51.6686 -4.5160 87° East 486 559 33,500 -2,571 Descending FlightAware UK
Wed 12:31:43 AM 51.6707 -4.4496 87° East 488 562 33,500  Level FlightAware UK
Wed 12:32:01 AM 51.6727 -4.3825 87° East 488 562 33,500 2,647 Level FlightAware UK
Wed 12:32:17 AM 51.6740 -4.3510 87° East 500 575 35,000  Climbing FlightAware ADS-B
Wed 12:32:37 AM 51.6768 -4.2481 87° East 486 559 33,500 -2,368 Descending FlightAware UK
Wed 12:32:55 AM 51.6787 -4.1817 87° East 484 557 33,500 4,500 Level FlightAware UK
Wed 12:32:57 AM 51.6790 -4.1850 87° East 498 573 35,000  Climbing FlightAware ADS-B
Wed 12:33:13 AM 51.6805 -4.1153 87° East 484 557 33,500 -2,647 Descending FlightAware UK
Wed 12:33:31 AM 51.6825 -4.0481 87° East 484 557 33,500 3,750 Level FlightAware UK
Wed 12:33:37 AM 51.6830 -4.0440 87° East 500 575 35,000  Climbing FlightAware ADS-B
Wed 12:33:55 AM 51.6849 -3.9592 87° East 486 559 33,500  Descending FlightAware UK
Wed 12:34:08 AM 51.6861 -3.9114 87° East 500 575 35,000 -800 Climbing FlightAware ADS-B
Wed 12:34:25 AM 51.6877 -3.8477 87° East 488 562 33,100 -1,742 Descending FlightAware UK
Wed 12:34:39 AM 51.6889 -3.7979 87° East 499 574 34,100 -2,200 Climbing FlightAware ADS-B
Wed 12:34:55 AM 51.6906 -3.7365 87° East 484 557 32,000 -2,063 Descending FlightAware UK
Wed 12:35:11 AM 51.6919 -3.6810 87° East 489 563 33,000 -2,000 Climbing FlightAware ADS-B
Wed 12:35:31 AM 51.6936 -3.6067 87° East 466 536 30,800 -2,000 Descending FlightAware UK
Wed 12:35:41 AM 51.6946 -3.5714 87° East 480 552 32,000 -2,000 Climbing FlightAware ADS-B
Wed 12:36:01 AM 51.6963 -3.4994 87° East 466 536 29,800 -1,935 Descending FlightAware UK
Wed 12:36:12 AM 51.6970 -3.4646 87° East 471 542 31,000 -2,000 Climbing FlightAware ADS-B
Wed 12:36:31 AM 51.6986 -3.3949 87° East 460 529 28,800 -2,000 Descending FlightAware UK
Wed 12:36:45 AM 51.6996 -3.3482 87° East 465 535 29,900 -1,742 Climbing FlightAware ADS-B
Wed 12:37:02 AM 51.7008 -3.2917 87° East 452 520 27,900 -1,875 Descending FlightAware UK
Wed 12:37:17 AM 51.7017 -3.2429 87° East 452 520 28,900 -2,000 Climbing FlightAware ADS-B
Wed 12:37:32 AM 51.7028 -3.1913 87° East 446 513 26,900 -1,800 Descending FlightAware UK
Wed 12:37:47 AM 51.7038 -3.1405 87° East 443 510 28,000 -1,800 Climbing FlightAware ADS-B
Wed 12:38:02 AM 51.7048 -3.0926 87° East 442 509 26,000 -1,875 Descending FlightAware UK
Wed 12:38:19 AM 51.7051 -3.0372 87° East 431 496 27,000 -1,833 Climbing FlightAware ADS-B
Wed 12:38:38 AM 51.7022 -2.9783 87° East 434 499 24,900 -1,935 Descending FlightAware UK
Wed 12:38:50 AM 51.6999 -2.9417 87° East 419 482 26,000 -2,000 Climbing FlightAware ADS-B
Wed 12:39:08 AM 51.6964 -2.8853 87° East 424 488 23,900 -1,800 Descending FlightAware UK
Wed 12:39:20 AM 51.6945 -2.8476 87° East 412 474 25,100 -1,600 Climbing FlightAware ADS-B
Wed 12:39:38 AM 51.6914 -2.7936 87° East 416 479 23,100 -1,742 Descending FlightAware UK
Wed 12:39:51 AM 51.6897 -2.7550 87° East 405 466 24,200 -1,800 Climbing FlightAware ADS-B
Wed 12:40:08 AM 51.6873 -2.7042 87° East 410 472 22,200 -1,800 Descending FlightAware UK
Wed 12:40:21 AM 51.6857 -2.6649 87° East 399 459 23,300 -1,800 Climbing FlightAware ADS-B
Wed 12:40:38 AM 51.6835 -2.6157 87° East 400 460 21,300 -1,778 Descending FlightAware UK
Wed 12:40:48 AM 51.6821 -2.5861 87° East 392 451 22,500 -1,800 Climbing FlightAware ADS-B
Wed 12:41:08 AM 51.6790 -2.5276 87° East 388 447 20,400 -1,548 Descending FlightAware UK
Wed 12:41:19 AM 51.6766 -2.4983 87° East 386 444 21,700 -1,600 Climbing FlightAware ADS-B
Wed 12:41:38 AM 51.6730 -2.4426 87° East 384 442 19,600 -1,800 Descending FlightAware UK
Wed 12:41:49 AM 51.6712 -2.4125 87° East 381 438 20,800 -1,800 Climbing FlightAware ADS-B
Wed 12:42:08 AM 51.6680 -2.3584 87° East 376 433 18,700 -1,600 Descending FlightAware UK
Wed 12:42:19 AM 51.6664 -2.3280 87° East 380 437 20,000 -1,600 Climbing FlightAware ADS-B
Wed 12:42:38 AM 51.6635 -2.2743 87° East 378 435 17,900 -1,875 Descending FlightAware UK
Wed 12:42:51 AM 51.6616 -2.2377 87° East 386 444 19,000 -1,800 Climbing FlightAware ADS-B
Wed 12:43:08 AM 51.6589 -2.1878 87° East 380 437 17,000 -1,742 Descending FlightAware UK
Wed 12:43:22 AM 51.6564 -2.1493 87° East 394 453 18,100 -1,800 Climbing FlightAware ADS-B
Wed 12:43:38 AM 51.6533 -2.1008 87° East 380 437 16,100 -1,800 Descending FlightAware UK
Wed 12:43:52 AM 51.6503 -2.0620 87° East 389 448 17,200 -1,800 Climbing FlightAware ADS-B
Wed 12:44:08 AM 51.6468 -2.0140 87° East 376 433 15,200 -1,742 Descending FlightAware UK
Wed 12:44:23 AM 51.6439 -1.9741 87° East 384 442 16,300 -1,800 Climbing FlightAware ADS-B
Wed 12:44:38 AM 51.6406 -1.9296 87° East 372 428 14,300 -1,742 Descending FlightAware UK
Wed 12:44:54 AM 51.6374 -1.8860 87° East 380 437 15,400 -1,667 Climbing FlightAware ADS-B
Wed 12:45:14 AM 51.6332 -1.8283 87° East 364 419 13,300 -1,800 Descending FlightAware UK
Wed 12:45:24 AM 51.6313 -1.8022 87° East 377 434 14,500 -1,400 Climbing FlightAware ADS-B
Wed 12:45:44 AM 51.6270 -1.7457 87° East 360 414 12,600 -1,000 Descending FlightAware UK
Wed 12:45:54 AM 51.6248 -1.7192 87° East 370 426 14,000 -400 Climbing FlightAware ADS-B
Wed 12:46:14 AM 51.6204 -1.6639 87° East 356 410 12,400  Descending FlightAware UK
Wed 12:46:21 AM 51.6188 -1.6456 87° East 369 425 14,000 6,000 Climbing FlightAware ADS-B
Wed 12:46:30 AM 51.6172 -1.6215 96° East 371 427 14,000  Level FlightAware ADS-B
Wed 12:46:36 AM 51.6170 -1.6055 91° East 373 429 14,000  Level FlightAware ADS-B
Wed 12:46:43 AM 51.6178 -1.5865 86° East 376 433 14,000  Level FlightAware ADS-B
Wed 12:47:00 AM 51.6205 -1.5373 85° East 377 434 14,000  Level FlightAware ADS-B
Wed 12:47:18 AM 51.6246 -1.4891 82° East 377 434 14,000 -2,368 Level FlightAware ADS-B
Wed 12:47:38 AM 51.6307 -1.4322 82° East 356 410 12,500  Descending FlightAware UK
Wed 12:47:48 AM 51.6335 -1.4054 82° East 378 435 14,000  Climbing FlightAware ADS-B
Wed 12:48:08 AM 51.6394 -1.3491 82° East 356 410 12,500  Descending FlightAware UK
Wed 12:48:19 AM 51.6426 -1.3213 82° East 378 435 14,000  Climbing FlightAware ADS-B
Wed 12:48:38 AM 51.6487 -1.2655 82° East 356 410 12,500  Descending FlightAware UK
Wed 12:48:49 AM 51.6520 -1.2368 82° East 381 438 14,000  Climbing FlightAware ADS-B
Wed 12:49:08 AM 51.6581 -1.1822 82° East 354 407 12,500 -194 Descending FlightAware UK
Wed 12:49:20 AM 51.6616 -1.1515 82° East 381 438 13,900 -800 Climbing FlightAware ADS-B
Wed 12:49:38 AM 51.6675 -1.0986 82° East 344 396 12,100 -800 Descending FlightAware UK
Wed 12:49:50 AM 51.6707 -1.0687 82° East 366 421 13,500 -600 Climbing FlightAware ADS-B
Wed 12:50:08 AM 51.6759 -1.0198 82° East 334 384 11,800 -800 Descending FlightAware UK
Wed 12:50:20 AM 51.6791 -0.9908 82° East 336 387 13,100 -1,200 Climbing FlightAware ADS-B
Wed 12:50:38 AM 51.6839 -0.9471 82° East 304 350 11,200 -1,161 Descending FlightAware UK
Wed 12:50:51 AM 51.6869 -0.9206 82° East 308 354 12,500 -1,000 Climbing FlightAware ADS-B
Wed 12:51:08 AM 51.6913 -0.8800 82° East 280 322 10,700 -800 Descending FlightAware UK
Wed 12:51:21 AM 51.6939 -0.8537 82° East 293 337 12,100 -387 Climbing FlightAware ADS-B
Wed 12:51:39 AM 51.6979 -0.8162 82° East 262 302 10,500 -621 Descending FlightAware UK
Wed 12:51:50 AM 51.7002 -0.7939 82° East 278 320 11,800 -1,200 Climbing FlightAware ADS-B
Wed 12:52:09 AM 51.7043 -0.7551 82° East 262 302 9,900 -1,161 Descending FlightAware UK
Wed 12:52:21 AM 51.7070 -0.7305 82° East 289 333 11,200 -800 Climbing FlightAware ADS-B
Wed 12:52:39 AM 51.7111 -0.6913 82° East 276 318 9,500 -200 Descending FlightAware UK
Wed 12:52:51 AM 51.7141 -0.6654 82° East 292 336 11,100  Climbing FlightAware ADS-B
Wed 12:53:08 AM 51.7180 -0.6273 82° East 270 311 9,500  Descending FlightAware UK
Wed 12:53:21 AM 51.7209 -0.6002 82° East 292 336 11,100 3,556 Climbing FlightAware ADS-B
Wed 12:53:35 AM 51.7237 -0.5720 81° East 291 335 11,100 -333 Level FlightAware ADS-B
Wed 12:53:39 AM 51.7242 -0.5618 85° East 290 334 11,000 -857 Descending FlightAware ADS-B
Wed 12:53:42 AM 51.7242 -0.5548 90° East 288 331 11,000  Level FlightAware ADS-B
Wed 12:53:47 AM 51.7233 -0.5461 99° East 283 326 11,000  Level FlightAware ADS-B
Wed 12:53:50 AM 51.7222 -0.5394 105° East 279 321 11,000  Level FlightAware ADS-B
Wed 12:53:53 AM 51.7207 -0.5328 110° East 276 318 11,000  Level FlightAware ADS-B
Wed 12:53:58 AM 51.7180 -0.5248 119° Southeast 273 314 11,000  Level FlightAware ADS-B
Wed 12:54:04 AM 51.7140 -0.5157 125° Southeast 267 307 11,000  Level FlightAware ADS-B
Wed 12:54:09 AM 51.7097 -0.5085 134° Southeast 262 302 11,000  Level FlightAware ADS-B
Wed 12:54:21 AM 51.6983 -0.4922 138° Southeast 259 298 11,000 -3,000 Level FlightAware ADS-B
Wed 12:54:39 AM 51.6831 -0.4682 138° Southeast 272 313 9,500  Descending FlightAware UK
Wed 12:54:52 AM 51.6730 -0.4491 138° Southeast 262 302 11,000 3,000 Climbing FlightAware ADS-B
Wed 12:55:09 AM 51.6590 -0.4239 132° Southeast 262 302 11,000  Level FlightAware ADS-B
Wed 12:55:14 AM 51.6546 -0.4169 135° Southeast 259 298 11,000  Level FlightAware ADS-B
Wed 12:55:19 AM 51.6508 -0.4121 142° Southeast 257 296 11,000 -750 Level FlightAware ADS-B
Wed 12:55:22 AM 51.6471 -0.4087 150° Southeast 252 290 10,900 -1,000 Descending FlightAware ADS-B
Wed 12:55:25 AM 51.6438 -0.4063 155° Southeast 250 288 10,900  Level FlightAware ADS-B
Wed 12:55:29 AM 51.6404 -0.4044 161° South 247 284 10,900 -750 Level FlightAware ADS-B
Wed 12:55:33 AM 51.6349 -0.4028 170° South 244 281 10,800 -1,333 Descending FlightAware ADS-B
Wed 12:55:38 AM 51.6301 -0.4028 179° South 243 280 10,700 -750 Descending FlightAware ADS-B
Wed 12:55:41 AM 51.6260 -0.4034 186° South 241 277 10,700 -667 Level FlightAware ADS-B
Wed 12:55:47 AM 51.6200 -0.4062 196° South 240 276 10,600 -1,333 Descending FlightAware ADS-B
Wed 12:55:50 AM 51.6169 -0.4085 205° Southwest 238 274 10,500 -1,714 Descending FlightAware ADS-B
Wed 12:55:54 AM 51.6131 -0.4124 212° Southwest 238 274 10,400 -750 Descending FlightAware ADS-B
Wed 12:55:58 AM 51.6099 -0.4167 220° Southwest 237 273 10,400 -750 Level FlightAware ADS-B
Wed 12:56:02 AM 51.6069 -0.4225 230° Southwest 238 274 10,300 -1,500 Descending FlightAware ADS-B
Wed 12:56:06 AM 51.6047 -0.4281 237° Southwest 240 276 10,200 -750 Descending FlightAware ADS-B
Wed 12:56:10 AM 51.6031 -0.4336 245° Southwest 242 278 10,200 -857 Level FlightAware ADS-B
Wed 12:56:13 AM 51.6018 -0.4398 251° West 244 281 10,100 -2,000 Descending FlightAware ADS-B
Wed 12:56:16 AM 51.6010 -0.4456 257° West 247 284 10,000 -1,714 Descending FlightAware ADS-B
Wed 12:56:20 AM 51.6006 -0.4528 265° West 250 288 9,900 -750 Descending FlightAware ADS-B
Wed 12:56:24 AM 51.6007 -0.4596 271° West 251 289 9,900 -750 Level FlightAware ADS-B
Wed 12:56:28 AM 51.6009 -0.4676 272° West 252 290 9,800 -1,333 Descending FlightAware ADS-B
Wed 12:56:33 AM 51.6014 -0.4773 275° West 253 291 9,700 -1,143 Descending FlightAware ADS-B
Wed 12:56:49 AM 51.6032 -0.5060 276° West 252 290 9,400 -1,355 Descending FlightAware ADS-B
Wed 12:57:04 AM 51.6048 -0.5344 275° West 252 290 9,000 -1,400 Descending FlightAware ADS-B
Wed 12:57:19 AM 51.6064 -0.5626 275° West 251 289 8,700 -1,200 Descending FlightAware ADS-B
Wed 12:57:34 AM 51.6079 -0.5907 275° West 250 288 8,400 -968 Descending FlightAware ADS-B
Wed 12:57:50 AM 51.6094 -0.6188 275° West 246 283 8,200 -643 Descending FlightAware ADS-B
Wed 12:58:02 AM 51.6108 -0.6413 276° West 237 273 8,100 -522 Descending FlightAware ADS-B
Wed 12:58:13 AM 51.6121 -0.6602 276° West 230 265 8,000 -222 Descending FlightAware ADS-B
Wed 12:58:29 AM 51.6138 -0.6851 276° West 212 244 8,000  Level FlightAware ADS-B
Wed 12:58:38 AM 51.6148 -0.6993 276° West 202 232 8,000  Level FlightAware ADS-B
Wed 12:58:50 AM 51.6158 -0.7163 275° West 195 224 8,000  Level FlightAware ADS-B
Wed 12:59:02 AM 51.6167 -0.7330 275° West 191 220 8,000  Level FlightAware ADS-B
Wed 12:59:05 AM 51.6166 -0.7384 268° West 189 217 8,000  Level FlightAware ADS-B
Wed 12:59:09 AM 51.6162 -0.7439 263° West 187 215 8,000  Level FlightAware ADS-B
Wed 12:59:15 AM 51.6154 -0.7517 261° West 186 214 8,000  Level FlightAware ADS-B
Wed 12:59:20 AM 51.6146 -0.7576 258° West 185 213 8,000  Level FlightAware ADS-B
Wed 12:59:30 AM 51.6123 -0.7722 256° West 185 213 8,000  Level FlightAware ADS-B
Wed 12:59:44 AM 51.6093 -0.7894 254° West 184 212 8,000  Level FlightAware ADS-B
Wed 12:59:59 AM 51.6058 -0.8093 254° West 184 212 8,000  Level FlightAware ADS-B
Wed 01:00:10 AM 51.6031 -0.8247 254° West 186 214 8,000  Level FlightAware ADS-B
Wed 01:00:24 AM 51.6000 -0.8430 255° West 186 214 8,000  Level FlightAware ADS-B
Wed 01:00:39 AM 51.5968 -0.8636 256° West 192 221 8,000 -387 Level FlightAware ADS-B
Wed 01:00:55 AM 51.5933 -0.8862 256° West 195 224 7,800 -667 Descending FlightAware ADS-B
Wed 01:01:06 AM 51.5910 -0.9013 256° West 192 221 7,700 -4,385 Descending FlightAware ADS-B
Wed 01:01:21 AM 51.5880 -0.9215 256° West 202 232 5,900 -1,125 Descending FlightAware UK
Wed 01:01:22 AM 51.5879 -0.9225 256° West 190 219 7,400 22,500 Climbing FlightAware ADS-B
Wed 01:01:25 AM 51.5870 -0.9274 253° West 188 216 7,400 -857 Level FlightAware ADS-B
Wed 01:01:29 AM 51.5858 -0.9320 247° West 186 214 7,300 -857 Descending FlightAware ADS-B
Wed 01:01:32 AM 51.5845 -0.9357 241° Southwest 182 209 7,300 -857 Level FlightAware ADS-B
Wed 01:01:36 AM 51.5827 -0.9402 238° Southwest 178 205 7,200 -750 Descending FlightAware ADS-B
Wed 01:01:40 AM 51.5810 -0.9439 233° Southwest 177 204 7,200 -667 Level FlightAware ADS-B
Wed 01:01:45 AM 51.5781 -0.9498 232° Southwest 176 203 7,100 -545 Descending FlightAware ADS-B
Wed 01:01:51 AM 51.5752 -0.9550 228° Southwest 175 201 7,100 -600 Level FlightAware ADS-B
Wed 01:01:55 AM 51.5728 -0.9586 223° Southwest 173 199 7,000 -857 Descending FlightAware ADS-B
Wed 01:01:58 AM 51.5706 -0.9611 215° Southwest 170 196 7,000 -857 Level FlightAware ADS-B
Wed 01:02:02 AM 51.5684 -0.9628 205° Southwest 168 193 6,900 -1,500 Descending FlightAware ADS-B
Wed 01:02:06 AM 51.5648 -0.9643 195° South 167 192 6,800 -857 Descending FlightAware ADS-B
Wed 01:02:09 AM 51.5625 -0.9647 186° South 167 192 6,800  Level FlightAware ADS-B
Wed 01:02:13 AM 51.5598 -0.9649 183° South 167 192 6,800 -667 Level FlightAware ADS-B
Wed 01:02:18 AM 51.5558 -0.9647 179° South 167 192 6,700 -900 Descending FlightAware ADS-B
Wed 01:02:33 AM 51.5442 -0.9639 177° South 166 191 6,500 -960 Descending FlightAware ADS-B
Wed 01:02:43 AM 51.5369 -0.9635 178° South 165 190 6,300 -1,000 Descending FlightAware ADS-B
Wed 01:02:57 AM 51.5260 -0.9628 178° South 164 189 6,100 -900 Descending FlightAware ADS-B
Wed 01:03:03 AM 51.5216 -0.9617 171° South 163 188 6,000 -600 Descending FlightAware ADS-B
Wed 01:03:07 AM 51.5187 -0.9600 160° South 164 189 6,000 -750 Level FlightAware ADS-B
Wed 01:03:11 AM 51.5161 -0.9576 149° Southeast 166 191 5,900 -750 Descending FlightAware ADS-B
Wed 01:03:15 AM 51.5138 -0.9543 138° Southeast 169 194 5,900 -857 Level FlightAware ADS-B
Wed 01:03:18 AM 51.5122 -0.9512 130° Southeast 172 198 5,800 -857 Descending FlightAware ADS-B
Wed 01:03:22 AM 51.5102 -0.9465 125° Southeast 174 200 5,800 -462 Level FlightAware ADS-B
Wed 01:03:31 AM 51.5066 -0.9369 121° Southeast 173 199 5,700 -720 Descending FlightAware ADS-B
Wed 01:03:47 AM 51.5005 -0.9193 119° Southeast 173 199 5,500 -581 Descending FlightAware ADS-B
Wed 01:04:02 AM 51.4944 -0.9024 120° Southeast 176 203 5,400 -400 Descending FlightAware ADS-B
Wed 01:04:17 AM 51.4882 -0.8852 120° Southeast 177 204 5,300 -3,600 Descending FlightAware ADS-B
Wed 01:04:32 AM 51.4820 -0.8674 120° Southeast 198 228 3,600 -750 Descending FlightAware UK
Wed 01:04:33 AM 51.4817 -0.8671 120° Southeast 176 203 5,100 18,000 Climbing FlightAware ADS-B
Wed 01:04:37 AM 51.4800 -0.8617 117° Southeast 176 203 5,100 -600 Level FlightAware ADS-B
Wed 01:04:43 AM 51.4784 -0.8552 111° Southeast 179 206 5,000 -1,200 Descending FlightAware ADS-B
Wed 01:04:47 AM 51.4774 -0.8491 105° East 184 212 4,900 -1,333 Descending FlightAware ADS-B
Wed 01:04:52 AM 51.4768 -0.8433 99° East 189 217 4,800 -1,333 Descending FlightAware ADS-B
Wed 01:04:56 AM 51.4764 -0.8368 96° East 192 221 4,700 -1,636 Descending FlightAware ADS-B
Wed 01:05:03 AM 51.4761 -0.8272 93° East 193 222 4,500 -1,200 Descending FlightAware ADS-B
Wed 01:05:11 AM 51.4760 -0.8152 91° East 193 222 4,400 -4,750 Descending FlightAware ADS-B
Wed 01:05:27 AM 51.4760 -0.7931 91° East 192 221 2,600 -1,125 Descending FlightAware UK
Wed 01:05:27 AM 51.4761 -0.7926 91° East 192 221 4,100 10,500 Climbing FlightAware ADS-B
Wed 01:05:35 AM 51.4761 -0.7814 90° East 193 222 4,000 -1,091 Descending FlightAware ADS-B
Wed 01:05:49 AM 51.4763 -0.7610 89° East 194 223 3,700 -1,034 Descending FlightAware ADS-B
Wed 01:06:04 AM 51.4763 -0.7402 90° East 186 214 3,500 -968 Descending FlightAware ADS-B
Wed 01:06:20 AM 51.4765 -0.7192 89° East 179 206 3,200 -1,154 Descending FlightAware ADS-B
Wed 01:06:30 AM 51.4766 -0.7058 89° East 176 203 3,000 -4,800 Descending FlightAware ADS-B
Wed 01:06:45 AM 51.4766 -0.6866 89° East 168 193 1,200 -800 Descending FlightAware UK
Wed 01:06:45 AM 51.4766 -0.6858 89° East 176 203 2,800 5,200 Climbing FlightAware ADS-B
Wed 01:07:00 AM 51.4767 -0.6666 90° East 175 201 2,500 -960 Descending FlightAware ADS-B
Wed 01:07:10 AM 51.4769 -0.6540 89° East 173 199 2,400 -947 Descending FlightAware ADS-B
Wed 01:07:19 AM 51.4769 -0.6423 90° East 173 199 2,200 -1,000 Descending FlightAware ADS-B
Wed 01:07:28 AM 51.4769 -0.6307 90° East 172 198 2,100 -900 Descending FlightAware ADS-B
Wed 01:07:39 AM 51.4769 -0.6168 90° East 173 199 1,900 -889 Descending FlightAware ADS-B
Wed 01:07:55 AM 51.4771 -0.5968 89° East 169 194 1,700 -882 Descending FlightAware ADS-B
Wed 01:08:13 AM 51.4771 -0.5746 90° East 165 190 1,400 -842 Descending FlightAware ADS-B
Wed 01:08:52 AM 51.4770 -0.5340 90° East 156 180 900 -783 Descending FlightAware ADS-B
Wed 01:09:22 AM 51.4770 -0.4990 90° East 153 176 500 -545 Descending FlightAware ADS-B
Wed 01:09:47 AM 51.4770 -0.4960 90° East 153 176 400 -120 Descending FlightAware ADS-B
Wed 01:10:12 AM 51.4770 -0.4690 90° East 153 176 400  Level FlightAware ADS-B

Login

Don't have an account? Register now (free) for customized features, flight alerts, and more!